Klamath Falls Airport Klamath Falls US
ICAO: KLMT
IATA: LMT
Category: Medium
Scheduled Services: Yes

Elevation: 4095 ft
TransAlt. 18000 ft.

Airport Communications:
KINGSLEY APP/DEP:123.675
ATIS:126.5
CTAF:118.2
GND:121.9
ANG BASE OPS:38.895
MC MINNVILLE RDO:122.6
KINGSLEY TWR:118.2
UNICOM:122.95

KLMT Zoom In..

Runways:

(A) RW 07 length 5258 ft width 100 ft
---- / hdg 73

(B) RW 14 length 10301 ft width 150 ft
---- / hdg 141

(C) RW 25 length 5258 ft width 100 ft
---- / hdg 253

(D) RW 32 length 10301 ft width 150 ft
ILS 109.50 / hdg 321

Location; KLMT
Day. 23 / Time. 07.53 Zulu
* Altimeter: 30.24
* Temperature: 17° c. 62.6°f.
* Wind from: 190° Speed 05 kn.
Dewpoint: 10° c.
Visibility: 2 Statute Miles.
Clouds: Overcast 2800 ft.
Conditions: Haze.

KLMT 230753Z AUTO 19005KT 2SM HZ OVC028 17/10 A3024 RMK AO2 SLP195 T01670100 403280078 $


Wind From 190°
Speed 05 kn.

 
 
jpsmedia.com for Web Design worldairports.se 2018   terms of use